sensor_id;sensor_type;location;lat;lon;timestamp;pressure;altitude;pressure_sealevel;temperature;humidity
52949;BME280;38812;50.942;3.644;2023-05-19T00:01:21;102612.34;;;6.81;100.00
52949;BME280;38812;50.942;3.644;2023-05-19T00:03:51;102612.25;;;6.77;100.00
52949;BME280;38812;50.942;3.644;2023-05-19T00:06:22;102616.50;;;6.73;100.00
52949;BME280;38812;50.942;3.644;2023-05-19T00:08:48;102620.66;;;6.64;100.00
52949;BME280;38812;50.942;3.644;2023-05-19T00:11:14;102609.34;;;6.63;100.00
52949;BME280;38812;50.942;3.644;2023-05-19T00:13:40;102631.91;;;6.61;100.00
52949;BME280;38812;50.942;3.644;2023-05-19T00:16:06;102619.44;;;6.48;100.00
52949;BME280;38812;50.942;3.644;2023-05-19T00:18:31;102608.03;;;6.44;100.00
52949;BME280;38812;50.942;3.644;2023-05-19T00:20:57;102611.28;;;6.36;100.00
52949;BME280;38812;50.942;3.644;2023-05-19T00:23:23;102613.00;;;6.35;100.00
52949;BME280;38812;50.942;3.644;2023-05-19T00:25:48;102609.41;;;6.30;100.00
52949;BME280;38812;50.942;3.644;2023-05-19T00:28:13;102618.16;;;6.32;100.00
52949;BME280;38812;50.942;3.644;2023-05-19T00:30:39;102612.72;;;6.23;100.00
52949;BME280;38812;50.942;3.644;2023-05-19T00:33:05;102624.69;;;6.15;100.00
52949;BME280;38812;50.942;3.644;2023-05-19T00:35:30;102630.75;;;6.14;100.00
52949;BME280;38812;50.942;3.644;2023-05-19T00:37:55;102617.53;;;6.08;100.00
52949;BME280;38812;50.942;3.644;2023-05-19T00:40:22;102616.69;;;6.09;100.00
52949;BME280;38812;50.942;3.644;2023-05-19T00:42:48;102624.50;;;6.09;100.00
52949;BME280;38812;50.942;3.644;2023-05-19T00:45:13;102616.91;;;6.16;100.00
52949;BME280;38812;50.942;3.644;2023-05-19T00:47:39;102614.31;;;6.18;100.00
52949;BME280;38812;50.942;3.644;2023-05-19T00:50:04;102609.09;;;6.18;100.00
52949;BME280;38812;50.942;3.644;2023-05-19T00:52:30;102609.03;;;6.15;100.00
52949;BME280;38812;50.942;3.644;2023-05-19T00:54:55;102603.72;;;6.12;100.00
52949;BME280;38812;50.942;3.644;2023-05-19T00:57:21;102594.00;;;6.06;100.00
52949;BME280;38812;50.942;3.644;2023-05-19T00:59:47;102595.91;;;6.12;100.00
52949;BME280;38812;50.942;3.644;2023-05-19T01:02:13;102596.66;;;6.08;100.00
52949;BME280;38812;50.942;3.644;2023-05-19T01:04:40;102591.41;;;6.06;100.00
52949;BME280;38812;50.942;3.644;2023-05-19T01:07:06;102600.28;;;6.13;100.00
52949;BME280;38812;50.942;3.644;2023-05-19T01:09:31;102590.50;;;6.04;100.00
52949;BME280;38812;50.942;3.644;2023-05-19T01:11:58;102600.63;;;5.92;100.00
52949;BME280;38812;50.942;3.644;2023-05-19T01:14:23;102573.56;;;5.89;100.00
52949;BME280;38812;50.942;3.644;2023-05-19T01:16:49;102576.53;;;6.02;100.00
52949;BME280;38812;50.942;3.644;2023-05-19T01:28:51;102567.44;;;5.88;100.00
52949;BME280;38812;50.942;3.644;2023-05-19T01:30:53;102569.44;;;5.65;100.00
52949;BME280;38812;50.942;3.644;2023-05-19T01:33:20;102569.38;;;5.62;100.00
52949;BME280;38812;50.942;3.644;2023-05-19T01:35:47;102565.72;;;5.56;100.00
52949;BME280;38812;50.942;3.644;2023-05-19T01:38:15;102570.81;;;5.51;100.00
52949;BME280;38812;50.942;3.644;2023-05-19T01:40:42;102556.09;;;5.53;100.00
52949;BME280;38812;50.942;3.644;2023-05-19T01:43:11;102572.47;;;5.49;100.00
52949;BME280;38812;50.942;3.644;2023-05-19T01:45:37;102566.22;;;5.42;100.00
52949;BME280;38812;50.942;3.644;2023-05-19T01:48:04;102563.59;;;5.41;100.00
52949;BME280;38812;50.942;3.644;2023-05-19T01:50:31;102561.59;;;5.32;100.00
52949;BME280;38812;50.942;3.644;2023-05-19T01:52:56;102549.38;;;5.30;100.00
52949;BME280;38812;50.942;3.644;2023-05-19T01:55:22;102550.94;;;5.25;100.00
52949;BME280;38812;50.942;3.644;2023-05-19T02:06:06;102552.84;;;5.30;100.00
52949;BME280;38812;50.942;3.644;2023-05-19T02:08:42;102549.97;;;5.20;100.00
52949;BME280;38812;50.942;3.644;2023-05-19T02:11:42;102562.84;;;5.15;100.00
52949;BME280;38812;50.942;3.644;2023-05-19T02:17:07;102553.41;;;5.19;100.00
52949;BME280;38812;50.942;3.644;2023-05-19T02:19:37;102564.81;;;5.24;100.00
52949;BME280;38812;50.942;3.644;2023-05-19T02:22:03;102557.56;;;5.12;100.00
52949;BME280;38812;50.942;3.644;2023-05-19T02:24:29;102551.47;;;5.11;100.00
52949;BME280;38812;50.942;3.644;2023-05-19T02:26:54;102546.22;;;5.10;100.00
52949;BME280;38812;50.942;3.644;2023-05-19T02:29:20;102557.47;;;5.09;100.00
52949;BME280;38812;50.942;3.644;2023-05-19T02:31:45;102550.44;;;5.06;100.00
52949;BME280;38812;50.942;3.644;2023-05-19T02:34:11;102552.81;;;4.99;100.00
52949;BME280;38812;50.942;3.644;2023-05-19T02:36:39;102549.25;;;4.95;100.00
52949;BME280;38812;50.942;3.644;2023-05-19T02:39:11;102551.88;;;4.95;100.00
52949;BME280;38812;50.942;3.644;2023-05-19T02:41:37;102576.06;;;4.91;100.00
52949;BME280;38812;50.942;3.644;2023-05-19T02:44:03;102586.38;;;4.88;100.00
52949;BME280;38812;50.942;3.644;2023-05-19T02:46:28;102557.13;;;4.98;100.00
52949;BME280;38812;50.942;3.644;2023-05-19T02:48:54;102557.31;;;5.04;100.00
52949;BME280;38812;50.942;3.644;2023-05-19T02:51:19;102558.13;;;5.02;100.00
52949;BME280;38812;50.942;3.644;2023-05-19T02:53:44;102555.66;;;5.06;100.00
52949;BME280;38812;50.942;3.644;2023-05-19T02:56:10;102546.84;;;5.03;100.00
52949;BME280;38812;50.942;3.644;2023-05-19T02:58:35;102549.50;;;5.04;100.00
52949;BME280;38812;50.942;3.644;2023-05-19T03:01:01;102555.88;;;5.14;100.00
52949;BME280;38812;50.942;3.644;2023-05-19T03:03:26;102553.00;;;5.05;100.00
52949;BME280;38812;50.942;3.644;2023-05-19T03:05:52;102568.53;;;5.02;100.00
52949;BME280;38812;50.942;3.644;2023-05-19T03:08:18;102545.13;;;5.03;100.00
52949;BME280;38812;50.942;3.644;2023-05-19T03:10:45;102540.13;;;5.09;100.00
52949;BME280;38812;50.942;3.644;2023-05-19T03:13:11;102561.03;;;5.12;100.00
52949;BME280;38812;50.942;3.644;2023-05-19T03:15:36;102546.16;;;5.08;100.00
52949;BME280;38812;50.942;3.644;2023-05-19T03:18:01;102532.06;;;5.02;100.00
52949;BME280;38812;50.942;3.644;2023-05-19T03:20:27;102531.97;;;4.97;100.00
52949;BME280;38812;50.942;3.644;2023-05-19T03:22:54;102539.84;;;5.00;100.00
52949;BME280;38812;50.942;3.644;2023-05-19T03:25:20;102535.47;;;4.99;100.00
52949;BME280;38812;50.942;3.644;2023-05-19T03:27:46;102542.34;;;4.96;100.00
52949;BME280;38812;50.942;3.644;2023-05-19T03:30:12;102538.06;;;4.99;100.00
52949;BME280;38812;50.942;3.644;2023-05-19T03:32:37;102532.88;;;4.99;100.00
52949;BME280;38812;50.942;3.644;2023-05-19T03:35:03;102533.25;;;4.83;100.00
52949;BME280;38812;50.942;3.644;2023-05-19T03:37:29;102541.97;;;4.83;100.00
52949;BME280;38812;50.942;3.644;2023-05-19T03:39:55;102546.19;;;4.80;100.00
52949;BME280;38812;50.942;3.644;2023-05-19T03:42:21;102523.53;;;4.76;100.00
52949;BME280;38812;50.942;3.644;2023-05-19T03:44:47;102533.16;;;4.80;100.00
52949;BME280;38812;50.942;3.644;2023-05-19T03:47:12;102533.75;;;4.70;100.00
52949;BME280;38812;50.942;3.644;2023-05-19T03:49:37;102531.28;;;4.74;100.00
52949;BME280;38812;50.942;3.644;2023-05-19T03:52:03;102537.09;;;4.66;100.00
52949;BME280;38812;50.942;3.644;2023-05-19T03:54:28;102525.41;;;4.52;100.00
52949;BME280;38812;50.942;3.644;2023-05-19T03:56:54;102534.13;;;4.54;100.00
52949;BME280;38812;50.942;3.644;2023-05-19T03:59:19;102538.06;;;4.69;100.00
52949;BME280;38812;50.942;3.644;2023-05-19T04:01:44;102535.03;;;4.56;100.00
52949;BME280;38812;50.942;3.644;2023-05-19T04:04:10;102560.56;;;4.67;100.00
52949;BME280;38812;50.942;3.644;2023-05-19T04:06:36;102541.31;;;4.62;100.00
52949;BME280;38812;50.942;3.644;2023-05-19T04:09:02;102553.00;;;4.75;100.00
52949;BME280;38812;50.942;3.644;2023-05-19T04:11:29;102560.72;;;4.72;100.00
52949;BME280;38812;50.942;3.644;2023-05-19T04:13:54;102539.06;;;4.73;100.00
52949;BME280;38812;50.942;3.644;2023-05-19T04:16:20;102540.16;;;4.81;100.00
52949;BME280;38812;50.942;3.644;2023-05-19T04:18:45;102548.25;;;4.90;100.00
52949;BME280;38812;50.942;3.644;2023-05-19T04:21:11;102550.09;;;4.94;100.00
52949;BME280;38812;50.942;3.644;2023-05-19T04:23:36;102558.91;;;4.99;100.00
52949;BME280;38812;50.942;3.644;2023-05-19T04:26:02;102560.84;;;5.06;100.00
52949;BME280;38812;50.942;3.644;2023-05-19T04:28:28;102560.94;;;5.09;100.00
52949;BME280;38812;50.942;3.644;2023-05-19T04:30:54;102569.88;;;5.18;100.00
52949;BME280;38812;50.942;3.644;2023-05-19T04:33:20;102556.91;;;5.21;100.00
52949;BME280;38812;50.942;3.644;2023-05-19T04:35:45;102564.91;;;5.27;100.00
52949;BME280;38812;50.942;3.644;2023-05-19T04:38:11;102566.78;;;5.31;100.00
52949;BME280;38812;50.942;3.644;2023-05-19T04:40:37;102563.41;;;5.35;100.00
52949;BME280;38812;50.942;3.644;2023-05-19T04:43:04;102566.19;;;5.41;100.00
52949;BME280;38812;50.942;3.644;2023-05-19T04:45:31;102567.28;;;5.49;100.00
52949;BME280;38812;50.942;3.644;2023-05-19T04:47:57;102570.28;;;5.64;100.00
52949;BME280;38812;50.942;3.644;2023-05-19T04:50:23;102586.31;;;5.78;100.00
52949;BME280;38812;50.942;3.644;2023-05-19T04:52:48;102578.84;;;5.92;100.00
52949;BME280;38812;50.942;3.644;2023-05-19T04:55:14;102575.66;;;6.02;100.00
52949;BME280;38812;50.942;3.644;2023-05-19T04:57:40;102578.75;;;6.22;100.00
52949;BME280;38812;50.942;3.644;2023-05-19T05:00:06;102577.31;;;6.34;100.00
52949;BME280;38812;50.942;3.644;2023-05-19T05:02:37;102569.94;;;6.54;100.00
52949;BME280;38812;50.942;3.644;2023-05-19T05:05:03;102573.72;;;6.67;100.00
52949;BME280;38812;50.942;3.644;2023-05-19T05:07:29;102571.72;;;6.96;100.00
52949;BME280;38812;50.942;3.644;2023-05-19T05:09:55;102565.69;;;7.42;100.00
52949;BME280;38812;50.942;3.644;2023-05-19T05:12:20;102575.72;;;8.14;100.00
52949;BME280;38812;50.942;3.644;2023-05-19T05:14:46;102557.75;;;8.96;100.00
52949;BME280;38812;50.942;3.644;2023-05-19T05:17:12;102561.09;;;9.58;100.00
52949;BME280;38812;50.942;3.644;2023-05-19T05:19:38;102555.94;;;10.76;100.00
52949;BME280;38812;50.942;3.644;2023-05-19T05:22:04;102561.47;;;11.42;100.00
52949;BME280;38812;50.942;3.644;2023-05-19T05:24:30;102553.63;;;11.75;100.00
52949;BME280;38812;50.942;3.644;2023-05-19T05:26:57;102556.25;;;11.74;100.00
52949;BME280;38812;50.942;3.644;2023-05-19T05:29:23;102556.31;;;12.12;100.00
52949;BME280;38812;50.942;3.644;2023-05-19T05:31:48;102567.72;;;11.83;100.00
52949;BME280;38812;50.942;3.644;2023-05-19T05:34:13;102562.47;;;12.08;100.00
52949;BME280;38812;50.942;3.644;2023-05-19T05:36:39;102560.47;;;13.07;100.00
52949;BME280;38812;50.942;3.644;2023-05-19T05:39:05;102567.31;;;13.57;100.00
52949;BME280;38812;50.942;3.644;2023-05-19T05:41:30;102569.09;;;13.49;100.00
52949;BME280;38812;50.942;3.644;2023-05-19T05:44:01;102566.41;;;13.64;100.00
52949;BME280;38812;50.942;3.644;2023-05-19T05:46:27;102564.53;;;14.74;100.00
52949;BME280;38812;50.942;3.644;2023-05-19T05:48:52;102558.59;;;15.29;100.00
52949;BME280;38812;50.942;3.644;2023-05-19T05:51:21;102553.69;;;14.97;100.00
52949;BME280;38812;50.942;3.644;2023-05-19T05:53:50;102557.63;;;15.96;100.00
52949;BME280;38812;50.942;3.644;2023-05-19T05:56:16;102556.50;;;16.59;100.00
52949;BME280;38812;50.942;3.644;2023-05-19T05:58:42;102568.88;;;15.51;100.00
52949;BME280;38812;50.942;3.644;2023-05-19T06:01:08;102568.59;;;15.07;100.00
52949;BME280;38812;50.942;3.644;2023-05-19T06:03:39;102563.09;;;14.46;100.00
52949;BME280;38812;50.942;3.644;2023-05-19T06:06:05;102552.81;;;14.10;100.00
52949;BME280;38812;50.942;3.644;2023-05-19T06:08:31;102559.22;;;13.83;100.00
52949;BME280;38812;50.942;3.644;2023-05-19T06:10:56;102560.63;;;14.26;100.00
52949;BME280;38812;50.942;3.644;2023-05-19T06:13:22;102558.56;;;14.59;100.00
52949;BME280;38812;50.942;3.644;2023-05-19T06:15:49;102568.16;;;14.69;100.00
52949;BME280;38812;50.942;3.644;2023-05-19T06:18:15;102558.84;;;15.11;100.00
52949;BME280;38812;50.942;3.644;2023-05-19T06:20:40;102563.88;;;15.29;100.00
52949;BME280;38812;50.942;3.644;2023-05-19T06:23:07;102568.31;;;15.29;100.00
52949;BME280;38812;50.942;3.644;2023-05-19T06:25:32;102567.84;;;14.95;100.00
52949;BME280;38812;50.942;3.644;2023-05-19T06:27:57;102572.69;;;14.56;100.00
52949;BME280;38812;50.942;3.644;2023-05-19T06:30:23;102573.00;;;14.21;100.00
52949;BME280;38812;50.942;3.644;2023-05-19T06:32:48;102570.84;;;13.56;100.00
52949;BME280;38812;50.942;3.644;2023-05-19T06:35:14;102561.25;;;13.40;100.00
52949;BME280;38812;50.942;3.644;2023-05-19T06:37:39;102571.03;;;13.19;100.00
52949;BME280;38812;50.942;3.644;2023-05-19T06:40:05;102570.97;;;13.34;100.00
52949;BME280;38812;50.942;3.644;2023-05-19T06:42:31;102572.59;;;13.57;100.00
52949;BME280;38812;50.942;3.644;2023-05-19T06:44:56;102558.53;;;13.52;100.00
52949;BME280;38812;50.942;3.644;2023-05-19T06:47:21;102565.59;;;13.48;100.00
52949;BME280;38812;50.942;3.644;2023-05-19T06:49:47;102558.63;;;13.36;100.00
52949;BME280;38812;50.942;3.644;2023-05-19T06:52:22;102553.38;;;13.30;100.00
52949;BME280;38812;50.942;3.644;2023-05-19T06:54:48;102557.81;;;13.21;100.00
52949;BME280;38812;50.942;3.644;2023-05-19T06:57:14;102555.13;;;13.31;100.00
52949;BME280;38812;50.942;3.644;2023-05-19T06:59:39;102557.84;;;13.18;100.00
52949;BME280;38812;50.942;3.644;2023-05-19T07:02:06;102553.44;;;13.20;100.00
52949;BME280;38812;50.942;3.644;2023-05-19T07:04:31;102550.81;;;13.18;100.00
52949;BME280;38812;50.942;3.644;2023-05-19T07:06:57;102551.63;;;13.29;100.00
52949;BME280;38812;50.942;3.644;2023-05-19T07:09:22;102547.19;;;13.36;100.00
52949;BME280;38812;50.942;3.644;2023-05-19T07:11:48;102547.91;;;13.61;100.00
52949;BME280;38812;50.942;3.644;2023-05-19T07:14:13;102541.66;;;13.74;100.00
52949;BME280;38812;50.942;3.644;2023-05-19T07:16:38;102551.38;;;13.66;100.00
52949;BME280;38812;50.942;3.644;2023-05-19T07:19:04;102536.38;;;13.72;100.00
52949;BME280;38812;50.942;3.644;2023-05-19T07:21:29;102544.41;;;13.62;100.00
52949;BME280;38812;50.942;3.644;2023-05-19T07:23:55;102540.78;;;13.75;100.00
52949;BME280;38812;50.942;3.644;2023-05-19T07:26:20;102545.03;;;13.93;100.00
52949;BME280;38812;50.942;3.644;2023-05-19T07:28:46;102539.69;;;14.00;100.00
52949;BME280;38812;50.942;3.644;2023-05-19T07:31:12;102540.56;;;14.01;100.00
52949;BME280;38812;50.942;3.644;2023-05-19T07:33:37;102535.19;;;14.08;100.00
52949;BME280;38812;50.942;3.644;2023-05-19T07:36:03;102532.44;;;14.24;100.00
52949;BME280;38812;50.942;3.644;2023-05-19T07:38:29;102534.25;;;14.19;100.00
52949;BME280;38812;50.942;3.644;2023-05-19T07:40:55;102529.66;;;14.40;100.00
52949;BME280;38812;50.942;3.644;2023-05-19T07:43:20;102534.69;;;14.63;100.00
52949;BME280;38812;50.942;3.644;2023-05-19T07:45:46;102535.44;;;14.76;100.00
52949;BME280;38812;50.942;3.644;2023-05-19T07:48:11;102526.47;;;14.89;100.00
52949;BME280;38812;50.942;3.644;2023-05-19T07:50:37;102539.56;;;15.00;100.00
52949;BME280;38812;50.942;3.644;2023-05-19T07:53:03;102523.38;;;15.21;100.00
52949;BME280;38812;50.942;3.644;2023-05-19T07:55:28;102530.28;;;15.34;100.00
52949;BME280;38812;50.942;3.644;2023-05-19T07:57:54;102528.41;;;15.39;100.00
52949;BME280;38812;50.942;3.644;2023-05-19T08:00:20;102526.38;;;15.60;100.00
52949;BME280;38812;50.942;3.644;2023-05-19T08:02:45;102525.16;;;15.81;100.00
52949;BME280;38812;50.942;3.644;2023-05-19T08:05:11;102528.19;;;16.11;100.00
52949;BME280;38812;50.942;3.644;2023-05-19T08:07:36;102523.88;;;16.04;100.00
52949;BME280;38812;50.942;3.644;2023-05-19T08:10:02;102531.47;;;16.73;100.00
52949;BME280;38812;50.942;3.644;2023-05-19T08:12:27;102522.72;;;16.68;100.00
52949;BME280;38812;50.942;3.644;2023-05-19T08:14:53;102519.13;;;16.72;100.00
52949;BME280;38812;50.942;3.644;2023-05-19T08:17:18;102518.59;;;16.98;100.00
52949;BME280;38812;50.942;3.644;2023-05-19T08:19:44;102515.47;;;17.20;100.00
52949;BME280;38812;50.942;3.644;2023-05-19T08:22:09;102509.94;;;17.69;96.60
52949;BME280;38812;50.942;3.644;2023-05-19T08:24:34;102512.59;;;18.37;93.06
52949;BME280;38812;50.942;3.644;2023-05-19T08:27:00;102518.34;;;18.54;89.97
52949;BME280;38812;50.942;3.644;2023-05-19T08:29:25;102510.16;;;19.78;89.21
52949;BME280;38812;50.942;3.644;2023-05-19T08:31:51;102502.78;;;20.37;76.87
52949;BME280;38812;50.942;3.644;2023-05-19T08:34:20;102513.56;;;20.09;76.37
52949;BME280;38812;50.942;3.644;2023-05-19T08:36:46;102504.28;;;20.19;75.88
52949;BME280;38812;50.942;3.644;2023-05-19T08:39:11;102499.06;;;20.66;72.83
52949;BME280;38812;50.942;3.644;2023-05-19T08:41:38;102502.75;;;20.87;71.34
52949;BME280;38812;50.942;3.644;2023-05-19T08:44:03;102494.81;;;21.31;68.35
52949;BME280;38812;50.942;3.644;2023-05-19T08:46:29;102503.53;;;20.66;67.69
52949;BME280;38812;50.942;3.644;2023-05-19T08:49:01;102492.22;;;20.82;67.29
52949;BME280;38812;50.942;3.644;2023-05-19T08:54:08;102492.22;;;21.29;70.39
52949;BME280;38812;50.942;3.644;2023-05-19T08:56:36;102487.56;;;21.34;65.50
52949;BME280;38812;50.942;3.644;2023-05-19T08:59:02;102491.16;;;21.33;64.42
52949;BME280;38812;50.942;3.644;2023-05-19T09:01:28;102487.78;;;21.28;65.25
52949;BME280;38812;50.942;3.644;2023-05-19T09:03:54;102489.38;;;21.55;65.48
52949;BME280;38812;50.942;3.644;2023-05-19T09:06:20;102492.78;;;21.14;61.99
52949;BME280;38812;50.942;3.644;2023-05-19T09:08:45;102481.91;;;21.20;63.60
52949;BME280;38812;50.942;3.644;2023-05-19T09:11:11;102483.16;;;21.10;62.71
52949;BME280;38812;50.942;3.644;2023-05-19T09:13:37;102490.34;;;20.61;63.62
52949;BME280;38812;50.942;3.644;2023-05-19T09:16:03;102476.78;;;20.91;62.32
52949;BME280;38812;50.942;3.644;2023-05-19T09:18:29;102473.06;;;20.95;64.51
52949;BME280;38812;50.942;3.644;2023-05-19T09:20:57;102466.78;;;21.63;62.72
52949;BME280;38812;50.942;3.644;2023-05-19T09:23:29;102473.13;;;21.60;62.43
52949;BME280;38812;50.942;3.644;2023-05-19T09:25:55;102470.59;;;21.12;65.71
52949;BME280;38812;50.942;3.644;2023-05-19T09:28:28;102469.66;;;21.36;62.08
52949;BME280;38812;50.942;3.644;2023-05-19T09:31:02;102477.97;;;21.50;63.91
52949;BME280;38812;50.942;3.644;2023-05-19T09:33:28;102460.44;;;22.07;63.16
52949;BME280;38812;50.942;3.644;2023-05-19T09:35:55;102472.34;;;22.00;58.95
52949;BME280;38812;50.942;3.644;2023-05-19T09:38:23;102471.84;;;22.31;62.60
52949;BME280;38812;50.942;3.644;2023-05-19T09:40:48;102471.09;;;22.29;62.52
52949;BME280;38812;50.942;3.644;2023-05-19T09:43:14;102474.03;;;21.81;61.97
52949;BME280;38812;50.942;3.644;2023-05-19T09:45:40;102474.91;;;22.23;60.99
52949;BME280;38812;50.942;3.644;2023-05-19T09:48:06;102469.53;;;21.39;54.88
52949;BME280;38812;50.942;3.644;2023-05-19T09:50:32;102482.22;;;21.56;60.59
52949;BME280;38812;50.942;3.644;2023-05-19T09:52:58;102484.47;;;20.76;61.28
52949;BME280;38812;50.942;3.644;2023-05-19T09:55:25;102481.31;;;20.65;61.61
52949;BME280;38812;50.942;3.644;2023-05-19T09:57:54;102476.19;;;20.59;63.02
52949;BME280;38812;50.942;3.644;2023-05-19T10:00:25;102468.69;;;21.81;61.28
52949;BME280;38812;50.942;3.644;2023-05-19T10:02:51;102464.97;;;21.85;59.56
52949;BME280;38812;50.942;3.644;2023-05-19T10:05:18;102474.84;;;20.47;61.72
52949;BME280;38812;50.942;3.644;2023-05-19T10:07:45;102461.66;;;21.13;62.01
52949;BME280;38812;50.942;3.644;2023-05-19T10:10:13;102453.59;;;21.58;60.61
52949;BME280;38812;50.942;3.644;2023-05-19T10:12:39;102451.31;;;21.04;60.60
52949;BME280;38812;50.942;3.644;2023-05-19T10:15:11;102461.31;;;22.28;63.15
52949;BME280;38812;50.942;3.644;2023-05-19T10:17:37;102451.06;;;21.33;62.11
52949;BME280;38812;50.942;3.644;2023-05-19T10:20:14;102450.44;;;22.11;59.35
52949;BME280;38812;50.942;3.644;2023-05-19T10:22:40;102453.13;;;22.70;58.13
52949;BME280;38812;50.942;3.644;2023-05-19T10:25:07;102446.16;;;22.47;58.29
52949;BME280;38812;50.942;3.644;2023-05-19T10:27:35;102455.59;;;21.53;59.17
52949;BME280;38812;50.942;3.644;2023-05-19T10:30:11;102449.28;;;21.76;60.38
52949;BME280;38812;50.942;3.644;2023-05-19T10:32:38;102449.31;;;21.32;62.27
52949;BME280;38812;50.942;3.644;2023-05-19T10:38:32;102445.16;;;23.25;56.52
52949;BME280;38812;50.942;3.644;2023-05-19T10:41:15;102439.00;;;22.67;57.38
52949;BME280;38812;50.942;3.644;2023-05-19T10:43:53;102434.84;;;22.80;56.25
52949;BME280;38812;50.942;3.644;2023-05-19T10:46:25;102439.09;;;22.84;54.54
52949;BME280;38812;50.942;3.644;2023-05-19T10:48:51;102434.84;;;23.53;55.08
52949;BME280;38812;50.942;3.644;2023-05-19T10:51:16;102420.97;;;23.80;51.48
52949;BME280;38812;50.942;3.644;2023-05-19T10:53:42;102437.16;;;22.30;49.70
52949;BME280;38812;50.942;3.644;2023-05-19T10:56:10;102427.56;;;22.63;48.84
52949;BME280;38812;50.942;3.644;2023-05-19T10:58:54;102421.56;;;22.19;50.51
52949;BME280;38812;50.942;3.644;2023-05-19T11:01:20;102418.13;;;22.15;51.55
52949;BME280;38812;50.942;3.644;2023-05-19T11:03:50;102420.34;;;22.26;52.58
52949;BME280;38812;50.942;3.644;2023-05-19T11:06:29;102419.44;;;22.07;51.64
52949;BME280;38812;50.942;3.644;2023-05-19T11:11:43;102422.06;;;21.44;50.71
52949;BME280;38812;50.942;3.644;2023-05-19T11:14:09;102418.91;;;21.57;51.72
52949;BME280;38812;50.942;3.644;2023-05-19T11:16:36;102417.28;;;21.09;52.03
52949;BME280;38812;50.942;3.644;2023-05-19T11:19:01;102427.00;;;21.55;55.22
52949;BME280;38812;50.942;3.644;2023-05-19T11:24:08;102417.75;;;22.25;53.88
52949;BME280;38812;50.942;3.644;2023-05-19T11:26:41;102423.75;;;22.30;50.42
52949;BME280;38812;50.942;3.644;2023-05-19T11:29:07;102432.59;;;21.49;54.98
52949;BME280;38812;50.942;3.644;2023-05-19T11:31:34;102419.97;;;20.85;53.08
52949;BME280;38812;50.942;3.644;2023-05-19T11:34:00;102414.50;;;21.96;52.55
52949;BME280;38812;50.942;3.644;2023-05-19T11:36:27;102411.91;;;21.74;50.77
52949;BME280;38812;50.942;3.644;2023-05-19T11:38:53;102404.63;;;21.78;50.03
52949;BME280;38812;50.942;3.644;2023-05-19T11:41:19;102405.88;;;21.89;53.40
52949;BME280;38812;50.942;3.644;2023-05-19T11:43:46;102411.53;;;21.41;54.48
52949;BME280;38812;50.942;3.644;2023-05-19T11:46:12;102395.78;;;21.96;53.55
52949;BME280;38812;50.942;3.644;2023-05-19T11:48:38;102404.81;;;21.73;50.56
52949;BME280;38812;50.942;3.644;2023-05-19T11:51:05;102393.66;;;21.64;52.75
52949;BME280;38812;50.942;3.644;2023-05-19T11:53:31;102400.31;;;21.74;51.89
52949;BME280;38812;50.942;3.644;2023-05-19T11:56:02;102394.25;;;22.11;50.88
52949;BME280;38812;50.942;3.644;2023-05-19T11:58:28;102400.38;;;21.72;52.80
52949;BME280;38812;50.942;3.644;2023-05-19T12:00:54;102396.34;;;20.98;54.97
52949;BME280;38812;50.942;3.644;2023-05-19T12:03:22;102394.25;;;20.36;56.68
52949;BME280;38812;50.942;3.644;2023-05-19T12:05:52;102399.44;;;20.64;54.68
52949;BME280;38812;50.942;3.644;2023-05-19T12:08:18;102374.94;;;21.64;54.13
52949;BME280;38812;50.942;3.644;2023-05-19T12:10:47;102372.13;;;22.07;54.34
52949;BME280;38812;50.942;3.644;2023-05-19T12:13:15;102365.94;;;22.26;53.16
52949;BME280;38812;50.942;3.644;2023-05-19T12:15:41;102371.22;;;21.66;51.47
52949;BME280;38812;50.942;3.644;2023-05-19T12:18:06;102372.69;;;21.94;51.44
52949;BME280;38812;50.942;3.644;2023-05-19T12:20:32;102374.63;;;21.90;52.16
52949;BME280;38812;50.942;3.644;2023-05-19T12:23:00;102374.13;;;22.41;51.45
52949;BME280;38812;50.942;3.644;2023-05-19T12:25:27;102368.16;;;21.75;51.10
52949;BME280;38812;50.942;3.644;2023-05-19T12:27:59;102364.06;;;21.87;50.86
52949;BME280;38812;50.942;3.644;2023-05-19T12:30:29;102366.28;;;21.98;55.37
52949;BME280;38812;50.942;3.644;2023-05-19T12:32:55;102359.00;;;21.61;53.75
52949;BME280;38812;50.942;3.644;2023-05-19T12:35:30;102361.44;;;22.07;52.86
52949;BME280;38812;50.942;3.644;2023-05-19T12:38:06;102366.13;;;22.02;53.88
52949;BME280;38812;50.942;3.644;2023-05-19T12:40:35;102360.31;;;21.91;53.54
52949;BME280;38812;50.942;3.644;2023-05-19T12:43:01;102361.25;;;21.70;52.00
52949;BME280;38812;50.942;3.644;2023-05-19T12:45:26;102360.75;;;21.62;50.73
52949;BME280;38812;50.942;3.644;2023-05-19T12:47:52;102358.63;;;21.28;52.54
52949;BME280;38812;50.942;3.644;2023-05-19T12:50:18;102352.28;;;22.11;55.76
52949;BME280;38812;50.942;3.644;2023-05-19T12:52:45;102355.22;;;22.26;52.27
52949;BME280;38812;50.942;3.644;2023-05-19T12:55:12;102352.53;;;21.86;52.14
52949;BME280;38812;50.942;3.644;2023-05-19T12:57:42;102354.63;;;22.19;53.04
52949;BME280;38812;50.942;3.644;2023-05-19T13:03:16;102350.41;;;20.88;54.43
52949;BME280;38812;50.942;3.644;2023-05-19T13:05:46;102344.66;;;21.21;54.38
52949;BME280;38812;50.942;3.644;2023-05-19T13:08:17;102348.56;;;20.91;52.91
52949;BME280;38812;50.942;3.644;2023-05-19T13:10:44;102347.78;;;20.65;54.51
52949;BME280;38812;50.942;3.644;2023-05-19T13:13:10;102346.81;;;20.90;54.77
52949;BME280;38812;50.942;3.644;2023-05-19T13:15:41;102330.28;;;21.02;53.95
52949;BME280;38812;50.942;3.644;2023-05-19T13:18:09;102336.31;;;20.85;54.98
52949;BME280;38812;50.942;3.644;2023-05-19T13:20:35;102327.41;;;20.63;56.75